sensor_id;sensor_type;location;lat;lon;timestamp;temperature;humidity
42037;DHT22;30340;52.004;5.908;2023-05-01T00:01:07;13.00;62.70
42037;DHT22;30340;52.004;5.908;2023-05-01T00:03:32;13.00;62.70
42037;DHT22;30340;52.004;5.908;2023-05-01T00:05:59;13.00;62.70
42037;DHT22;30340;52.004;5.908;2023-05-01T00:08:25;12.90;62.70
42037;DHT22;30340;52.004;5.908;2023-05-01T00:10:51;12.90;62.80
42037;DHT22;30340;52.004;5.908;2023-05-01T00:13:16;12.90;62.80
42037;DHT22;30340;52.004;5.908;2023-05-01T00:15:46;12.90;62.80
42037;DHT22;30340;52.004;5.908;2023-05-01T00:18:11;12.80;62.90
42037;DHT22;30340;52.004;5.908;2023-05-01T00:20:37;12.90;62.80
42037;DHT22;30340;52.004;5.908;2023-05-01T00:23:03;12.90;62.70
42037;DHT22;30340;52.004;5.908;2023-05-01T00:25:29;12.90;62.70
42037;DHT22;30340;52.004;5.908;2023-05-01T00:27:55;12.90;62.50
42037;DHT22;30340;52.004;5.908;2023-05-01T00:30:21;12.90;62.30
42037;DHT22;30340;52.004;5.908;2023-05-01T00:32:46;12.90;62.20
42037;DHT22;30340;52.004;5.908;2023-05-01T00:35:12;12.90;62.10
42037;DHT22;30340;52.004;5.908;2023-05-01T00:37:38;12.90;62.00
42037;DHT22;30340;52.004;5.908;2023-05-01T00:40:04;12.90;61.80
42037;DHT22;30340;52.004;5.908;2023-05-01T00:42:34;12.90;61.70
42037;DHT22;30340;52.004;5.908;2023-05-01T00:45:00;12.90;61.60
42037;DHT22;30340;52.004;5.908;2023-05-01T00:47:26;12.90;61.40
42037;DHT22;30340;52.004;5.908;2023-05-01T00:49:51;12.80;61.40
42037;DHT22;30340;52.004;5.908;2023-05-01T00:52:17;12.80;61.20
42037;DHT22;30340;52.004;5.908;2023-05-01T00:54:44;12.80;61.00
42037;DHT22;30340;52.004;5.908;2023-05-01T00:57:19;12.80;60.90
42037;DHT22;30340;52.004;5.908;2023-05-01T00:59:46;12.80;60.80
42037;DHT22;30340;52.004;5.908;2023-05-01T01:02:12;12.80;60.60
42037;DHT22;30340;52.004;5.908;2023-05-01T01:04:40;12.80;60.50
42037;DHT22;30340;52.004;5.908;2023-05-01T01:07:16;12.80;60.30
42037;DHT22;30340;52.004;5.908;2023-05-01T01:10:02;12.70;60.10
42037;DHT22;30340;52.004;5.908;2023-05-01T01:12:43;12.70;60.00
42037;DHT22;30340;52.004;5.908;2023-05-01T01:15:35;12.70;60.00
42037;DHT22;30340;52.004;5.908;2023-05-01T01:18:34;12.70;59.90
42037;DHT22;30340;52.004;5.908;2023-05-01T01:21:42;12.70;59.70
42037;DHT22;30340;52.004;5.908;2023-05-01T01:24:45;12.70;59.50
42037;DHT22;30340;52.004;5.908;2023-05-01T01:30:33;12.60;59.60
42037;DHT22;30340;52.004;5.908;2023-05-01T01:33:21;12.60;59.50
42037;DHT22;30340;52.004;5.908;2023-05-01T01:35:56;12.50;59.40
42037;DHT22;30340;52.004;5.908;2023-05-01T01:38:36;12.50;59.50
42037;DHT22;30340;52.004;5.908;2023-05-01T01:41:19;12.50;59.50
42037;DHT22;30340;52.004;5.908;2023-05-01T01:43:53;12.60;59.60
42037;DHT22;30340;52.004;5.908;2023-05-01T01:46:20;12.60;59.60
42037;DHT22;30340;52.004;5.908;2023-05-01T01:48:49;12.60;59.40
42037;DHT22;30340;52.004;5.908;2023-05-01T01:51:18;12.60;59.50
42037;DHT22;30340;52.004;5.908;2023-05-01T01:53:51;12.60;59.40
42037;DHT22;30340;52.004;5.908;2023-05-01T01:56:19;12.50;59.40
42037;DHT22;30340;52.004;5.908;2023-05-01T01:58:46;12.50;59.50
42037;DHT22;30340;52.004;5.908;2023-05-01T02:01:13;12.50;59.50
42037;DHT22;30340;52.004;5.908;2023-05-01T02:03:40;12.50;59.50
42037;DHT22;30340;52.004;5.908;2023-05-01T02:06:09;12.50;59.40
42037;DHT22;30340;52.004;5.908;2023-05-01T02:08:37;12.50;59.60
42037;DHT22;30340;52.004;5.908;2023-05-01T02:11:04;12.40;60.20
42037;DHT22;30340;52.004;5.908;2023-05-01T02:13:30;12.50;59.60
42037;DHT22;30340;52.004;5.908;2023-05-01T02:15:58;12.40;59.70
42037;DHT22;30340;52.004;5.908;2023-05-01T02:18:26;12.40;59.70
42037;DHT22;30340;52.004;5.908;2023-05-01T02:20:54;12.30;59.90
42037;DHT22;30340;52.004;5.908;2023-05-01T02:23:21;12.30;60.00
42037;DHT22;30340;52.004;5.908;2023-05-01T02:25:49;12.30;60.00
42037;DHT22;30340;52.004;5.908;2023-05-01T02:28:18;12.30;60.00
42037;DHT22;30340;52.004;5.908;2023-05-01T02:30:45;12.30;60.00
42037;DHT22;30340;52.004;5.908;2023-05-01T02:33:11;12.40;60.10
42037;DHT22;30340;52.004;5.908;2023-05-01T02:35:40;12.30;60.00
42037;DHT22;30340;52.004;5.908;2023-05-01T02:38:09;12.30;60.10
42037;DHT22;30340;52.004;5.908;2023-05-01T02:40:35;12.30;60.20
42037;DHT22;30340;52.004;5.908;2023-05-01T02:43:11;12.20;60.30
42037;DHT22;30340;52.004;5.908;2023-05-01T02:45:39;12.30;60.30
42037;DHT22;30340;52.004;5.908;2023-05-01T02:48:07;12.30;60.20
42037;DHT22;30340;52.004;5.908;2023-05-01T02:50:35;12.40;60.20
42037;DHT22;30340;52.004;5.908;2023-05-01T02:53:02;12.40;60.10
42037;DHT22;30340;52.004;5.908;2023-05-01T02:55:27;12.40;60.20
42037;DHT22;30340;52.004;5.908;2023-05-01T02:57:57;12.40;60.20
42037;DHT22;30340;52.004;5.908;2023-05-01T03:00:23;12.50;60.20
42037;DHT22;30340;52.004;5.908;2023-05-01T03:02:49;12.60;60.20
42037;DHT22;30340;52.004;5.908;2023-05-01T03:05:14;12.50;60.20
42037;DHT22;30340;52.004;5.908;2023-05-01T03:07:40;12.60;60.30
42037;DHT22;30340;52.004;5.908;2023-05-01T03:10:06;12.60;60.90
42037;DHT22;30340;52.004;5.908;2023-05-01T03:12:32;12.60;60.30
42037;DHT22;30340;52.004;5.908;2023-05-01T03:14:58;12.60;60.50
42037;DHT22;30340;52.004;5.908;2023-05-01T03:17:24;12.60;60.50
42037;DHT22;30340;52.004;5.908;2023-05-01T03:19:49;12.60;60.60
42037;DHT22;30340;52.004;5.908;2023-05-01T03:22:16;12.60;60.60
42037;DHT22;30340;52.004;5.908;2023-05-01T03:24:42;12.60;60.70
42037;DHT22;30340;52.004;5.908;2023-05-01T03:27:07;12.70;60.80
42037;DHT22;30340;52.004;5.908;2023-05-01T03:29:33;12.60;60.80
42037;DHT22;30340;52.004;5.908;2023-05-01T03:31:59;12.60;60.80
42037;DHT22;30340;52.004;5.908;2023-05-01T03:34:25;12.60;60.90
42037;DHT22;30340;52.004;5.908;2023-05-01T03:36:52;12.50;60.80
42037;DHT22;30340;52.004;5.908;2023-05-01T03:39:18;12.40;61.00
42037;DHT22;30340;52.004;5.908;2023-05-01T03:41:43;12.40;61.20
42037;DHT22;30340;52.004;5.908;2023-05-01T03:44:09;12.30;61.30
42037;DHT22;30340;52.004;5.908;2023-05-01T03:46:34;12.30;61.50
42037;DHT22;30340;52.004;5.908;2023-05-01T03:49:00;12.20;61.40
42037;DHT22;30340;52.004;5.908;2023-05-01T03:51:26;12.30;61.50
42037;DHT22;30340;52.004;5.908;2023-05-01T03:53:51;12.30;61.30
42037;DHT22;30340;52.004;5.908;2023-05-01T03:56:17;12.30;61.40
42037;DHT22;30340;52.004;5.908;2023-05-01T03:58:43;12.30;61.40
42037;DHT22;30340;52.004;5.908;2023-05-01T04:01:08;12.30;61.20
42037;DHT22;30340;52.004;5.908;2023-05-01T04:03:34;12.30;61.30
42037;DHT22;30340;52.004;5.908;2023-05-01T04:06:00;12.30;61.30
42037;DHT22;30340;52.004;5.908;2023-05-01T04:08:25;12.40;61.30
42037;DHT22;30340;52.004;5.908;2023-05-01T04:10:51;12.40;61.20
42037;DHT22;30340;52.004;5.908;2023-05-01T04:13:16;12.50;61.20
42037;DHT22;30340;52.004;5.908;2023-05-01T04:15:45;12.50;61.20
42037;DHT22;30340;52.004;5.908;2023-05-01T04:18:11;12.50;61.10
42037;DHT22;30340;52.004;5.908;2023-05-01T04:20:36;12.50;61.10
42037;DHT22;30340;52.004;5.908;2023-05-01T04:23:02;12.60;61.10
42037;DHT22;30340;52.004;5.908;2023-05-01T04:25:27;12.60;61.00
42037;DHT22;30340;52.004;5.908;2023-05-01T04:27:53;12.60;61.00
42037;DHT22;30340;52.004;5.908;2023-05-01T04:30:19;12.60;61.10
42037;DHT22;30340;52.004;5.908;2023-05-01T04:32:44;12.70;61.20
42037;DHT22;30340;52.004;5.908;2023-05-01T04:35:10;12.60;61.30
42037;DHT22;30340;52.004;5.908;2023-05-01T04:37:36;12.60;61.40
42037;DHT22;30340;52.004;5.908;2023-05-01T04:40:02;12.60;61.50
42037;DHT22;30340;52.004;5.908;2023-05-01T04:42:32;12.60;61.70
42037;DHT22;30340;52.004;5.908;2023-05-01T04:44:57;12.60;61.90
42037;DHT22;30340;52.004;5.908;2023-05-01T04:47:26;12.60;62.00
42037;DHT22;30340;52.004;5.908;2023-05-01T04:49:53;12.60;62.00
42037;DHT22;30340;52.004;5.908;2023-05-01T04:52:18;12.60;62.10
42037;DHT22;30340;52.004;5.908;2023-05-01T04:54:44;12.60;62.10
42037;DHT22;30340;52.004;5.908;2023-05-01T04:57:09;12.60;62.20
42037;DHT22;30340;52.004;5.908;2023-05-01T04:59:35;12.60;62.20
42037;DHT22;30340;52.004;5.908;2023-05-01T05:02:00;12.60;62.10
42037;DHT22;30340;52.004;5.908;2023-05-01T05:04:26;12.60;62.00
42037;DHT22;30340;52.004;5.908;2023-05-01T05:06:52;12.60;61.90
42037;DHT22;30340;52.004;5.908;2023-05-01T05:09:17;12.70;61.90
42037;DHT22;30340;52.004;5.908;2023-05-01T05:11:43;12.70;61.80
42037;DHT22;30340;52.004;5.908;2023-05-01T05:14:09;12.70;61.90
42037;DHT22;30340;52.004;5.908;2023-05-01T05:16:35;12.80;61.80
42037;DHT22;30340;52.004;5.908;2023-05-01T05:19:00;12.80;61.80
42037;DHT22;30340;52.004;5.908;2023-05-01T05:21:26;12.90;61.60
42037;DHT22;30340;52.004;5.908;2023-05-01T05:23:51;12.80;61.40
42037;DHT22;30340;52.004;5.908;2023-05-01T05:26:17;12.80;61.40
42037;DHT22;30340;52.004;5.908;2023-05-01T05:28:43;12.90;61.40
42037;DHT22;30340;52.004;5.908;2023-05-01T05:31:08;12.80;61.30
42037;DHT22;30340;52.004;5.908;2023-05-01T05:33:34;12.90;61.30
42037;DHT22;30340;52.004;5.908;2023-05-01T05:35:59;12.90;61.20
42037;DHT22;30340;52.004;5.908;2023-05-01T05:38:25;13.00;61.00
42037;DHT22;30340;52.004;5.908;2023-05-01T05:40:51;13.40;60.80
42037;DHT22;30340;52.004;5.908;2023-05-01T05:43:18;13.50;60.10
42037;DHT22;30340;52.004;5.908;2023-05-01T05:45:44;13.50;60.00
42037;DHT22;30340;52.004;5.908;2023-05-01T05:48:10;13.50;60.30
42037;DHT22;30340;52.004;5.908;2023-05-01T05:50:35;13.80;60.30
42037;DHT22;30340;52.004;5.908;2023-05-01T05:53:01;14.00;59.80
42037;DHT22;30340;52.004;5.908;2023-05-01T05:55:26;14.00;59.80
42037;DHT22;30340;52.004;5.908;2023-05-01T05:57:52;13.90;60.10
42037;DHT22;30340;52.004;5.908;2023-05-01T06:00:18;13.90;60.40
42037;DHT22;30340;52.004;5.908;2023-05-01T06:02:44;13.90;60.60
42037;DHT22;30340;52.004;5.908;2023-05-01T06:05:09;14.00;60.50
42037;DHT22;30340;52.004;5.908;2023-05-01T06:07:35;14.10;60.30
42037;DHT22;30340;52.004;5.908;2023-05-01T06:10:01;14.10;60.20
42037;DHT22;30340;52.004;5.908;2023-05-01T06:12:32;14.00;60.40
42037;DHT22;30340;52.004;5.908;2023-05-01T06:14:58;14.00;60.60
42037;DHT22;30340;52.004;5.908;2023-05-01T06:17:24;14.00;60.60
42037;DHT22;30340;52.004;5.908;2023-05-01T06:19:50;14.00;60.70
42037;DHT22;30340;52.004;5.908;2023-05-01T06:22:18;14.00;60.70
42037;DHT22;30340;52.004;5.908;2023-05-01T06:24:43;14.00;60.80
42037;DHT22;30340;52.004;5.908;2023-05-01T06:27:09;14.00;60.80
42037;DHT22;30340;52.004;5.908;2023-05-01T06:29:35;14.00;61.00
42037;DHT22;30340;52.004;5.908;2023-05-01T06:32:01;14.00;61.10
42037;DHT22;30340;52.004;5.908;2023-05-01T06:34:27;13.70;61.30
42037;DHT22;30340;52.004;5.908;2023-05-01T06:36:52;13.70;61.70
42037;DHT22;30340;52.004;5.908;2023-05-01T06:39:18;13.60;61.80
42037;DHT22;30340;52.004;5.908;2023-05-01T06:41:47;13.50;62.10
42037;DHT22;30340;52.004;5.908;2023-05-01T06:44:13;13.50;62.20
42037;DHT22;30340;52.004;5.908;2023-05-01T06:46:38;13.50;62.30
42037;DHT22;30340;52.004;5.908;2023-05-01T06:49:04;13.60;62.80
42037;DHT22;30340;52.004;5.908;2023-05-01T06:51:30;13.70;62.00
42037;DHT22;30340;52.004;5.908;2023-05-01T06:53:56;13.70;61.90
42037;DHT22;30340;52.004;5.908;2023-05-01T06:56:21;13.70;62.00
42037;DHT22;30340;52.004;5.908;2023-05-01T06:58:47;13.60;62.00
42037;DHT22;30340;52.004;5.908;2023-05-01T07:01:13;13.60;62.20
42037;DHT22;30340;52.004;5.908;2023-05-01T07:03:38;13.60;62.30
42037;DHT22;30340;52.004;5.908;2023-05-01T07:06:04;13.60;62.20
42037;DHT22;30340;52.004;5.908;2023-05-01T07:08:29;13.70;62.10
42037;DHT22;30340;52.004;5.908;2023-05-01T07:10:55;13.80;62.10
42037;DHT22;30340;52.004;5.908;2023-05-01T07:13:21;13.80;61.80
42037;DHT22;30340;52.004;5.908;2023-05-01T07:15:46;13.80;61.80
42037;DHT22;30340;52.004;5.908;2023-05-01T07:18:13;13.90;61.70
42037;DHT22;30340;52.004;5.908;2023-05-01T07:20:38;13.90;61.50
42037;DHT22;30340;52.004;5.908;2023-05-01T07:23:04;14.00;61.30
42037;DHT22;30340;52.004;5.908;2023-05-01T07:25:30;13.90;61.10
42037;DHT22;30340;52.004;5.908;2023-05-01T07:27:56;14.00;61.10
42037;DHT22;30340;52.004;5.908;2023-05-01T07:30:21;14.10;61.00
42037;DHT22;30340;52.004;5.908;2023-05-01T07:32:47;14.10;61.00
42037;DHT22;30340;52.004;5.908;2023-05-01T07:35:13;14.00;60.70
42037;DHT22;30340;52.004;5.908;2023-05-01T07:37:38;14.00;60.70
42037;DHT22;30340;52.004;5.908;2023-05-01T07:40:04;14.00;60.70
42037;DHT22;30340;52.004;5.908;2023-05-01T07:42:30;14.10;60.80
42037;DHT22;30340;52.004;5.908;2023-05-01T07:44:55;14.20;60.80
42037;DHT22;30340;52.004;5.908;2023-05-01T07:47:21;14.20;60.50
42037;DHT22;30340;52.004;5.908;2023-05-01T07:49:47;14.30;60.60
42037;DHT22;30340;52.004;5.908;2023-05-01T07:52:12;14.40;60.40
42037;DHT22;30340;52.004;5.908;2023-05-01T07:54:39;14.60;60.30
42037;DHT22;30340;52.004;5.908;2023-05-01T07:57:06;15.10;59.80
42037;DHT22;30340;52.004;5.908;2023-05-01T07:59:31;15.20;59.20
42037;DHT22;30340;52.004;5.908;2023-05-01T08:01:57;15.20;58.90
42037;DHT22;30340;52.004;5.908;2023-05-01T08:04:22;15.20;58.80
42037;DHT22;30340;52.004;5.908;2023-05-01T08:06:51;15.30;58.60
42037;DHT22;30340;52.004;5.908;2023-05-01T08:09:16;15.50;58.50
42037;DHT22;30340;52.004;5.908;2023-05-01T08:11:42;15.60;58.20
42037;DHT22;30340;52.004;5.908;2023-05-01T08:14:08;15.60;58.20
42037;DHT22;30340;52.004;5.908;2023-05-01T08:16:36;15.80;58.20
42037;DHT22;30340;52.004;5.908;2023-05-01T08:19:02;15.80;58.00
42037;DHT22;30340;52.004;5.908;2023-05-01T08:21:28;15.90;58.00
42037;DHT22;30340;52.004;5.908;2023-05-01T08:23:54;16.10;57.70
42037;DHT22;30340;52.004;5.908;2023-05-01T08:26:21;16.20;57.40
42037;DHT22;30340;52.004;5.908;2023-05-01T08:28:46;16.40;57.20
42037;DHT22;30340;52.004;5.908;2023-05-01T08:31:13;16.60;56.80
42037;DHT22;30340;52.004;5.908;2023-05-01T08:33:38;16.70;56.60
42037;DHT22;30340;52.004;5.908;2023-05-01T08:36:07;16.70;56.20
42037;DHT22;30340;52.004;5.908;2023-05-01T08:38:34;16.90;56.20
42037;DHT22;30340;52.004;5.908;2023-05-01T08:41:00;17.10;56.20
42037;DHT22;30340;52.004;5.908;2023-05-01T08:43:29;17.30;55.90
42037;DHT22;30340;52.004;5.908;2023-05-01T08:45:58;17.20;55.50
42037;DHT22;30340;52.004;5.908;2023-05-01T08:48:25;17.30;55.50
42037;DHT22;30340;52.004;5.908;2023-05-01T08:50:54;17.50;55.30
42037;DHT22;30340;52.004;5.908;2023-05-01T08:53:23;17.70;55.00
42037;DHT22;30340;52.004;5.908;2023-05-01T08:55:49;17.90;54.60
42037;DHT22;30340;52.004;5.908;2023-05-01T08:58:17;18.00;54.80
42037;DHT22;30340;52.004;5.908;2023-05-01T09:00:45;18.10;54.00
42037;DHT22;30340;52.004;5.908;2023-05-01T09:03:11;18.10;53.30
42037;DHT22;30340;52.004;5.908;2023-05-01T09:05:38;18.30;53.50
42037;DHT22;30340;52.004;5.908;2023-05-01T09:08:04;18.40;53.50
42037;DHT22;30340;52.004;5.908;2023-05-01T09:10:31;18.30;52.40
42037;DHT22;30340;52.004;5.908;2023-05-01T09:13:00;18.40;52.90
42037;DHT22;30340;52.004;5.908;2023-05-01T09:15:27;18.50;52.30
42037;DHT22;30340;52.004;5.908;2023-05-01T09:17:58;18.50;52.50
42037;DHT22;30340;52.004;5.908;2023-05-01T09:20:24;18.80;52.40
42037;DHT22;30340;52.004;5.908;2023-05-01T09:22:50;18.80;51.10
42037;DHT22;30340;52.004;5.908;2023-05-01T09:25:16;18.80;51.70
42037;DHT22;30340;52.004;5.908;2023-05-01T09:27:43;19.00;51.80
42037;DHT22;30340;52.004;5.908;2023-05-01T09:30:31;19.00;51.20
42037;DHT22;30340;52.004;5.908;2023-05-01T09:33:05;18.90;50.90
42037;DHT22;30340;52.004;5.908;2023-05-01T09:35:30;19.00;51.40
42037;DHT22;30340;52.004;5.908;2023-05-01T09:37:57;19.20;51.40
42037;DHT22;30340;52.004;5.908;2023-05-01T09:40:26;19.50;51.10
42037;DHT22;30340;52.004;5.908;2023-05-01T09:42:52;19.80;50.30
42037;DHT22;30340;52.004;5.908;2023-05-01T09:45:20;19.80;49.90
42037;DHT22;30340;52.004;5.908;2023-05-01T09:47:48;19.90;49.50
42037;DHT22;30340;52.004;5.908;2023-05-01T09:50:33;19.80;49.20
42037;DHT22;30340;52.004;5.908;2023-05-01T09:53:03;19.70;49.00
42037;DHT22;30340;52.004;5.908;2023-05-01T09:55:31;19.60;49.30
42037;DHT22;30340;52.004;5.908;2023-05-01T09:57:57;19.80;49.60
42037;DHT22;30340;52.004;5.908;2023-05-01T10:00:25;20.10;49.60
42037;DHT22;30340;52.004;5.908;2023-05-01T10:02:51;20.40;49.30
42037;DHT22;30340;52.004;5.908;2023-05-01T10:05:18;20.50;48.60
42037;DHT22;30340;52.004;5.908;2023-05-01T10:08:00;20.50;47.80
42037;DHT22;30340;52.004;5.908;2023-05-01T10:10:26;20.50;46.90
42037;DHT22;30340;52.004;5.908;2023-05-01T10:12:52;20.60;46.80
42037;DHT22;30340;52.004;5.908;2023-05-01T10:15:18;20.70;46.80
42037;DHT22;30340;52.004;5.908;2023-05-01T10:17:44;20.70;46.50
42037;DHT22;30340;52.004;5.908;2023-05-01T10:20:11;20.90;46.50
42037;DHT22;30340;52.004;5.908;2023-05-01T10:22:37;21.00;46.40
42037;DHT22;30340;52.004;5.908;2023-05-01T10:25:09;21.10;46.20
42037;DHT22;30340;52.004;5.908;2023-05-01T10:27:39;21.30;46.20
42037;DHT22;30340;52.004;5.908;2023-05-01T10:30:08;21.40;46.00
42037;DHT22;30340;52.004;5.908;2023-05-01T10:32:35;21.60;45.60
42037;DHT22;30340;52.004;5.908;2023-05-01T10:35:38;21.70;45.30
42037;DHT22;30340;52.004;5.908;2023-05-01T10:38:00;21.90;45.20
42037;DHT22;30340;52.004;5.908;2023-05-01T10:45:47;22.30;44.20
42037;DHT22;30340;52.004;5.908;2023-05-01T10:53:41;22.50;43.90
42037;DHT22;30340;52.004;5.908;2023-05-01T11:01:33;22.40;42.90
42037;DHT22;30340;52.004;5.908;2023-05-01T11:09:42;22.20;42.80
42037;DHT22;30340;52.004;5.908;2023-05-01T11:12:15;22.20;42.80
42037;DHT22;30340;52.004;5.908;2023-05-01T11:15:00;22.20;42.80
42037;DHT22;30340;52.004;5.908;2023-05-01T11:20:05;22.40;43.20
42037;DHT22;30340;52.004;5.908;2023-05-01T11:22:32;22.50;43.00
42037;DHT22;30340;52.004;5.908;2023-05-01T11:24:58;22.40;42.80
42037;DHT22;30340;52.004;5.908;2023-05-01T11:27:25;22.40;42.80
42037;DHT22;30340;52.004;5.908;2023-05-01T11:29:52;22.30;42.90
42037;DHT22;30340;52.004;5.908;2023-05-01T11:32:23;22.30;43.10
42037;DHT22;30340;52.004;5.908;2023-05-01T11:34:49;22.40;43.00
42037;DHT22;30340;52.004;5.908;2023-05-01T11:37:15;22.40;42.80
42037;DHT22;30340;52.004;5.908;2023-05-01T11:39:48;22.30;43.00
42037;DHT22;30340;52.004;5.908;2023-05-01T11:42:14;22.30;43.00
42037;DHT22;30340;52.004;5.908;2023-05-01T11:44:39;22.30;43.10
42037;DHT22;30340;52.004;5.908;2023-05-01T11:47:05;22.30;43.00
42037;DHT22;30340;52.004;5.908;2023-05-01T11:49:31;22.00;42.50
42037;DHT22;30340;52.004;5.908;2023-05-01T11:51:57;22.00;43.10
42037;DHT22;30340;52.004;5.908;2023-05-01T11:54:23;22.10;43.20
42037;DHT22;30340;52.004;5.908;2023-05-01T11:57:00;22.20;43.20
42037;DHT22;30340;52.004;5.908;2023-05-01T11:59:25;22.30;43.30
42037;DHT22;30340;52.004;5.908;2023-05-01T12:01:51;22.40;43.90
42037;DHT22;30340;52.004;5.908;2023-05-01T12:04:25;22.20;42.30
42037;DHT22;30340;52.004;5.908;2023-05-01T12:06:54;22.00;43.00
42037;DHT22;30340;52.004;5.908;2023-05-01T12:09:21;22.00;43.30
42037;DHT22;30340;52.004;5.908;2023-05-01T12:11:49;21.90;43.30
42037;DHT22;30340;52.004;5.908;2023-05-01T12:14:15;21.80;43.40
42037;DHT22;30340;52.004;5.908;2023-05-01T12:16:42;21.70;43.40
42037;DHT22;30340;52.004;5.908;2023-05-01T12:19:08;21.50;43.10
42037;DHT22;30340;52.004;5.908;2023-05-01T12:21:36;21.40;43.20
42037;DHT22;30340;52.004;5.908;2023-05-01T12:24:12;21.30;43.40
42037;DHT22;30340;52.004;5.908;2023-05-01T12:26:42;21.20;43.30
42037;DHT22;30340;52.004;5.908;2023-05-01T12:29:08;21.10;43.20
42037;DHT22;30340;52.004;5.908;2023-05-01T12:31:35;21.00;43.10
42037;DHT22;30340;52.004;5.908;2023-05-01T12:34:04;20.90;43.10
42037;DHT22;30340;52.004;5.908;2023-05-01T12:36:33;20.90;43.20
42037;DHT22;30340;52.004;5.908;2023-05-01T12:39:09;20.90;43.40
42037;DHT22;30340;52.004;5.908;2023-05-01T12:41:41;20.90;43.40
42037;DHT22;30340;52.004;5.908;2023-05-01T12:44:21;20.90;43.00
42037;DHT22;30340;52.004;5.908;2023-05-01T12:47:01;21.10;43.30
42037;DHT22;30340;52.004;5.908;2023-05-01T12:49:27;21.20;43.10
42037;DHT22;30340;52.004;5.908;2023-05-01T12:51:55;21.40;42.80
42037;DHT22;30340;52.004;5.908;2023-05-01T12:54:23;21.50;43.20
42037;DHT22;30340;52.004;5.908;2023-05-01T12:56:50;21.70;41.80
42037;DHT22;30340;52.004;5.908;2023-05-01T12:59:23;21.90;41.70
42037;DHT22;30340;52.004;5.908;2023-05-01T13:02:03;22.10;41.60
42037;DHT22;30340;52.004;5.908;2023-05-01T13:04:29;22.20;41.30
42037;DHT22;30340;52.004;5.908;2023-05-01T13:06:56;22.30;41.00
42037;DHT22;30340;52.004;5.908;2023-05-01T13:09:23;22.30;40.70
42037;DHT22;30340;52.004;5.908;2023-05-01T13:12:01;22.30;40.90
42037;DHT22;30340;52.004;5.908;2023-05-01T13:14:38;22.40;40.80
42037;DHT22;30340;52.004;5.908;2023-05-01T13:17:06;22.40;41.10
42037;DHT22;30340;52.004;5.908;2023-05-01T13:19:32;22.60;41.10
42037;DHT22;30340;52.004;5.908;2023-05-01T13:21:58;22.70;40.70
42037;DHT22;30340;52.004;5.908;2023-05-01T13:24:34;22.70;40.50
42037;DHT22;30340;52.004;5.908;2023-05-01T13:27:00;22.80;40.60
42037;DHT22;30340;52.004;5.908;2023-05-01T13:29:26;22.80;40.00
42037;DHT22;30340;52.004;5.908;2023-05-01T13:31:53;22.70;40.20
42037;DHT22;30340;52.004;5.908;2023-05-01T13:34:29;22.80;40.30
42037;DHT22;30340;52.004;5.908;2023-05-01T13:36:56;23.00;40.00
42037;DHT22;30340;52.004;5.908;2023-05-01T13:39:22;23.10;39.70
42037;DHT22;30340;52.004;5.908;2023-05-01T13:41:49;23.30;39.60
42037;DHT22;30340;52.004;5.908;2023-05-01T13:44:16;23.50;39.60
42037;DHT22;30340;52.004;5.908;2023-05-01T13:46:41;23.40;39.50
42037;DHT22;30340;52.004;5.908;2023-05-01T13:49:07;23.60;39.60
42037;DHT22;30340;52.004;5.908;2023-05-01T13:51:33;23.80;39.50
42037;DHT22;30340;52.004;5.908;2023-05-01T13:54:03;23.80;39.30
42037;DHT22;30340;52.004;5.908;2023-05-01T13:56:29;24.00;39.50
42037;DHT22;30340;52.004;5.908;2023-05-01T13:58:58;24.00;39.20
42037;DHT22;30340;52.004;5.908;2023-05-01T14:01:24;23.80;39.60
42037;DHT22;30340;52.004;5.908;2023-05-01T14:03:50;23.90;39.90
42037;DHT22;30340;52.004;5.908;2023-05-01T14:06:17;23.60;40.60
42037;DHT22;30340;52.004;5.908;2023-05-01T14:08:44;23.30;41.30
42037;DHT22;30340;52.004;5.908;2023-05-01T14:11:11;22.90;42.10
42037;DHT22;30340;52.004;5.908;2023-05-01T14:13:42;22.50;42.70
42037;DHT22;30340;52.004;5.908;2023-05-01T14:16:10;22.30;43.50
42037;DHT22;30340;52.004;5.908;2023-05-01T14:18:44;22.10;43.90
42037;DHT22;30340;52.004;5.908;2023-05-01T14:21:14;21.90;44.50
42037;DHT22;30340;52.004;5.908;2023-05-01T14:23:40;21.60;45.10
42037;DHT22;30340;52.004;5.908;2023-05-01T14:26:09;21.50;45.50
42037;DHT22;30340;52.004;5.908;2023-05-01T14:28:41;21.20;45.90
42037;DHT22;30340;52.004;5.908;2023-05-01T14:31:25;21.00;46.30
42037;DHT22;30340;52.004;5.908;2023-05-01T14:34:03;20.90;46.60
42037;DHT22;30340;52.004;5.908;2023-05-01T14:36:30;20.80;47.00
42037;DHT22;30340;52.004;5.908;2023-05-01T14:38:58;20.70;47.30
42037;DHT22;30340;52.004;5.908;2023-05-01T14:41:23;20.60;47.90
42037;DHT22;30340;52.004;5.908;2023-05-01T14:43:50;20.40;48.20
42037;DHT22;30340;52.004;5.908;2023-05-01T14:48:51;20.20;48.90
42037;DHT22;30340;52.004;5.908;2023-05-01T14:51:18;20.20;49.20
42037;DHT22;30340;52.004;5.908;2023-05-01T14:53:44;20.00;49.50
42037;DHT22;30340;52.004;5.908;2023-05-01T14:56:11;19.90;49.80
42037;DHT22;30340;52.004;5.908;2023-05-01T14:58:36;19.80;50.10
42037;DHT22;30340;52.004;5.908;2023-05-01T15:01:02;19.70;50.30
42037;DHT22;30340;52.004;5.908;2023-05-01T15:03:28;19.60;50.50
42037;DHT22;30340;52.004;5.908;2023-05-01T15:05:54;19.50;51.00
42037;DHT22;30340;52.004;5.908;2023-05-01T15:08:21;19.40;51.30
42037;DHT22;30340;52.004;5.908;2023-05-01T15:10:47;19.30;51.40
42037;DHT22;30340;52.004;5.908;2023-05-01T15:13:12;19.30;51.50
42037;DHT22;30340;52.004;5.908;2023-05-01T15:15:38;19.30;51.70
42037;DHT22;30340;52.004;5.908;2023-05-01T15:18:03;19.30;51.70
42037;DHT22;30340;52.004;5.908;2023-05-01T15:20:30;19.30;51.40
42037;DHT22;30340;52.004;5.908;2023-05-01T15:22:55;19.30;52.10
42037;DHT22;30340;52.004;5.908;2023-05-01T15:25:21;19.30;51.40
42037;DHT22;30340;52.004;5.908;2023-05-01T15:27:46;19.20;51.10
42037;DHT22;30340;52.004;5.908;2023-05-01T15:30:14;19.10;51.20
42037;DHT22;30340;52.004;5.908;2023-05-01T15:32:40;19.20;51.10
42037;DHT22;30340;52.004;5.908;2023-05-01T15:35:05;19.20;50.90
42037;DHT22;30340;52.004;5.908;2023-05-01T15:37:31;19.30;50.70
42037;DHT22;30340;52.004;5.908;2023-05-01T15:39:57;19.30;50.60
42037;DHT22;30340;52.004;5.908;2023-05-01T15:42:23;19.50;50.40
42037;DHT22;30340;52.004;5.908;2023-05-01T15:44:49;19.50;50.00
42037;DHT22;30340;52.004;5.908;2023-05-01T15:47:14;19.60;50.10
42037;DHT22;30340;52.004;5.908;2023-05-01T15:49:40;19.80;49.80
42037;DHT22;30340;52.004;5.908;2023-05-01T15:52:06;19.90;49.40
42037;DHT22;30340;52.004;5.908;2023-05-01T15:54:31;20.00;48.90
42037;DHT22;30340;52.004;5.908;2023-05-01T15:56:59;20.10;48.50
42037;DHT22;30340;52.004;5.908;2023-05-01T15:59:26;20.10;48.10
42037;DHT22;30340;52.004;5.908;2023-05-01T16:01:53;20.10;48.10
42037;DHT22;30340;52.004;5.908;2023-05-01T16:04:19;20.00;48.10